sensor_id;sensor_type;location;lat;lon;timestamp;P1;durP1;ratioP1;P2;durP2;ratioP2
58978;SDS011;44763;50.464;30.612;2022-07-29T00:00:00;2.40;;;1.35;;
58978;SDS011;44763;50.464;30.612;2022-07-29T00:02:31;1.47;;;1.05;;
58978;SDS011;44763;50.464;30.612;2022-07-29T00:04:59;4.45;;;1.20;;
58978;SDS011;44763;50.464;30.612;2022-07-29T00:07:25;2.92;;;1.82;;
58978;SDS011;44763;50.464;30.612;2022-07-29T00:09:52;2.00;;;1.60;;
58978;SDS011;44763;50.464;30.612;2022-07-29T00:12:19;4.85;;;1.32;;
58978;SDS011;44763;50.464;30.612;2022-07-29T00:14:47;4.50;;;1.65;;
58978;SDS011;44763;50.464;30.612;2022-07-29T00:17:15;2.58;;;1.00;;
58978;SDS011;44763;50.464;30.612;2022-07-29T00:19:41;2.12;;;1.72;;
58978;SDS011;44763;50.464;30.612;2022-07-29T00:22:09;1.17;;;1.10;;
58978;SDS011;44763;50.464;30.612;2022-07-29T00:27:01;2.58;;;0.93;;
58978;SDS011;44763;50.464;30.612;2022-07-29T00:29:28;1.00;;;0.90;;
58978;SDS011;44763;50.464;30.612;2022-07-29T00:31:54;1.70;;;1.42;;
58978;SDS011;44763;50.464;30.612;2022-07-29T00:37:04;1.55;;;1.40;;
58978;SDS011;44763;50.464;30.612;2022-07-29T00:39:31;1.90;;;1.70;;
58978;SDS011;44763;50.464;30.612;2022-07-29T00:44:23;2.70;;;1.10;;
58978;SDS011;44763;50.464;30.612;2022-07-29T00:46:49;4.58;;;1.37;;
58978;SDS011;44763;50.464;30.612;2022-07-29T00:49:15;1.55;;;1.10;;
58978;SDS011;44763;50.464;30.612;2022-07-29T00:54:08;6.77;;;1.60;;
58978;SDS011;44763;50.464;30.612;2022-07-29T00:56:34;2.77;;;1.17;;
58978;SDS011;44763;50.464;30.612;2022-07-29T00:59:01;1.70;;;1.25;;
58978;SDS011;44763;50.464;30.612;2022-07-29T01:01:27;1.47;;;1.37;;
58978;SDS011;44763;50.464;30.612;2022-07-29T01:03:54;1.62;;;1.35;;
58978;SDS011;44763;50.464;30.612;2022-07-29T01:06:21;3.37;;;1.00;;
58978;SDS011;44763;50.464;30.612;2022-07-29T01:08:49;1.57;;;1.55;;
58978;SDS011;44763;50.464;30.612;2022-07-29T01:11:17;2.70;;;1.35;;
58978;SDS011;44763;50.464;30.612;2022-07-29T01:13:46;2.75;;;1.30;;
58978;SDS011;44763;50.464;30.612;2022-07-29T01:16:15;2.58;;;2.10;;
58978;SDS011;44763;50.464;30.612;2022-07-29T01:18:53;1.55;;;1.32;;
58978;SDS011;44763;50.464;30.612;2022-07-29T01:21:27;1.70;;;0.75;;
58978;SDS011;44763;50.464;30.612;2022-07-29T01:24:30;2.10;;;1.62;;
58978;SDS011;44763;50.464;30.612;2022-07-29T01:27:26;2.02;;;1.82;;
58978;SDS011;44763;50.464;30.612;2022-07-29T01:29:59;7.80;;;6.28;;
58978;SDS011;44763;50.464;30.612;2022-07-29T01:32:29;3.95;;;3.58;;
58978;SDS011;44763;50.464;30.612;2022-07-29T01:40:45;2.90;;;1.57;;
58978;SDS011;44763;50.464;30.612;2022-07-29T01:43:18;1.85;;;1.67;;
58978;SDS011;44763;50.464;30.612;2022-07-29T01:45:48;1.65;;;1.45;;
58978;SDS011;44763;50.464;30.612;2022-07-29T01:48:34;4.03;;;1.75;;
58978;SDS011;44763;50.464;30.612;2022-07-29T01:51:19;1.32;;;0.95;;
58978;SDS011;44763;50.464;30.612;2022-07-29T01:56:45;5.25;;;1.55;;
58978;SDS011;44763;50.464;30.612;2022-07-29T01:59:15;3.77;;;2.25;;
58978;SDS011;44763;50.464;30.612;2022-07-29T02:01:45;1.77;;;1.57;;
58978;SDS011;44763;50.464;30.612;2022-07-29T02:04:15;2.85;;;2.02;;
58978;SDS011;44763;50.464;30.612;2022-07-29T02:06:44;4.03;;;2.25;;
58978;SDS011;44763;50.464;30.612;2022-07-29T02:09:15;2.17;;;1.98;;
58978;SDS011;44763;50.464;30.612;2022-07-29T02:11:47;2.33;;;2.17;;
58978;SDS011;44763;50.464;30.612;2022-07-29T02:14:15;3.15;;;1.65;;
58978;SDS011;44763;50.464;30.612;2022-07-29T02:16:47;5.28;;;2.37;;
58978;SDS011;44763;50.464;30.612;2022-07-29T02:19:17;3.35;;;1.98;;
58978;SDS011;44763;50.464;30.612;2022-07-29T02:21:50;2.37;;;1.75;;
58978;SDS011;44763;50.464;30.612;2022-07-29T02:24:22;2.47;;;2.27;;
58978;SDS011;44763;50.464;30.612;2022-07-29T02:26:51;2.45;;;1.95;;
58978;SDS011;44763;50.464;30.612;2022-07-29T02:29:21;3.85;;;2.60;;
58978;SDS011;44763;50.464;30.612;2022-07-29T02:31:51;6.75;;;2.27;;
58978;SDS011;44763;50.464;30.612;2022-07-29T02:34:20;2.52;;;2.33;;
58978;SDS011;44763;50.464;30.612;2022-07-29T02:36:48;3.42;;;2.10;;
58978;SDS011;44763;50.464;30.612;2022-07-29T02:39:15;2.30;;;2.10;;
58978;SDS011;44763;50.464;30.612;2022-07-29T02:41:51;9.73;;;2.25;;
58978;SDS011;44763;50.464;30.612;2022-07-29T02:44:27;3.83;;;1.40;;
58978;SDS011;44763;50.464;30.612;2022-07-29T02:46:59;5.53;;;1.72;;
58978;SDS011;44763;50.464;30.612;2022-07-29T02:55:32;5.85;;;1.70;;
58978;SDS011;44763;50.464;30.612;2022-07-29T03:00:49;2.35;;;2.05;;
58978;SDS011;44763;50.464;30.612;2022-07-29T03:03:17;6.20;;;2.55;;
58978;SDS011;44763;50.464;30.612;2022-07-29T03:05:46;4.25;;;2.62;;
58978;SDS011;44763;50.464;30.612;2022-07-29T03:08:13;4.12;;;2.00;;
58978;SDS011;44763;50.464;30.612;2022-07-29T03:11:45;7.72;;;2.77;;
58978;SDS011;44763;50.464;30.612;2022-07-29T03:14:11;3.60;;;1.60;;
58978;SDS011;44763;50.464;30.612;2022-07-29T03:16:38;6.72;;;1.87;;
58978;SDS011;44763;50.464;30.612;2022-07-29T03:19:07;4.33;;;1.95;;
58978;SDS011;44763;50.464;30.612;2022-07-29T03:21:34;2.25;;;2.05;;
58978;SDS011;44763;50.464;30.612;2022-07-29T03:24:01;1.87;;;1.77;;
58978;SDS011;44763;50.464;30.612;2022-07-29T03:26:28;2.90;;;1.90;;
58978;SDS011;44763;50.464;30.612;2022-07-29T03:28:54;4.12;;;2.30;;
58978;SDS011;44763;50.464;30.612;2022-07-29T03:31:22;9.25;;;2.55;;
58978;SDS011;44763;50.464;30.612;2022-07-29T03:33:48;4.97;;;2.42;;
58978;SDS011;44763;50.464;30.612;2022-07-29T03:36:15;3.45;;;2.02;;
58978;SDS011;44763;50.464;30.612;2022-07-29T03:38:41;2.10;;;1.72;;
58978;SDS011;44763;50.464;30.612;2022-07-29T03:41:10;4.83;;;2.02;;
58978;SDS011;44763;50.464;30.612;2022-07-29T03:43:41;4.37;;;1.70;;
58978;SDS011;44763;50.464;30.612;2022-07-29T03:46:09;2.92;;;2.05;;
58978;SDS011;44763;50.464;30.612;2022-07-29T03:48:39;4.80;;;1.62;;
58978;SDS011;44763;50.464;30.612;2022-07-29T03:51:12;2.85;;;1.32;;
58978;SDS011;44763;50.464;30.612;2022-07-29T03:53:38;6.00;;;1.95;;
58978;SDS011;44763;50.464;30.612;2022-07-29T03:56:06;5.08;;;2.75;;
58978;SDS011;44763;50.464;30.612;2022-07-29T03:58:35;4.33;;;2.17;;
58978;SDS011;44763;50.464;30.612;2022-07-29T04:01:04;4.55;;;2.92;;
58978;SDS011;44763;50.464;30.612;2022-07-29T04:03:31;3.33;;;2.05;;
58978;SDS011;44763;50.464;30.612;2022-07-29T04:05:59;4.50;;;2.08;;
58978;SDS011;44763;50.464;30.612;2022-07-29T04:08:30;3.85;;;1.77;;
58978;SDS011;44763;50.464;30.612;2022-07-29T04:10:56;4.87;;;2.10;;
58978;SDS011;44763;50.464;30.612;2022-07-29T04:13:24;3.72;;;2.33;;
58978;SDS011;44763;50.464;30.612;2022-07-29T04:15:51;4.75;;;2.80;;
58978;SDS011;44763;50.464;30.612;2022-07-29T04:18:17;6.20;;;2.50;;
58978;SDS011;44763;50.464;30.612;2022-07-29T04:20:45;4.67;;;2.95;;
58978;SDS011;44763;50.464;30.612;2022-07-29T04:23:11;6.20;;;2.75;;
58978;SDS011;44763;50.464;30.612;2022-07-29T04:25:39;3.90;;;1.95;;
58978;SDS011;44763;50.464;30.612;2022-07-29T04:28:07;2.62;;;2.20;;
58978;SDS011;44763;50.464;30.612;2022-07-29T04:30:36;4.92;;;2.42;;
58978;SDS011;44763;50.464;30.612;2022-07-29T04:33:05;3.20;;;2.30;;
58978;SDS011;44763;50.464;30.612;2022-07-29T04:35:36;6.65;;;2.02;;
58978;SDS011;44763;50.464;30.612;2022-07-29T04:38:05;5.45;;;2.15;;
58978;SDS011;44763;50.464;30.612;2022-07-29T04:40:32;6.97;;;3.00;;
58978;SDS011;44763;50.464;30.612;2022-07-29T04:43:00;7.00;;;2.25;;
58978;SDS011;44763;50.464;30.612;2022-07-29T04:45:28;3.35;;;1.10;;
58978;SDS011;44763;50.464;30.612;2022-07-29T04:47:54;7.97;;;1.37;;
58978;SDS011;44763;50.464;30.612;2022-07-29T04:50:21;1.52;;;1.30;;
58978;SDS011;44763;50.464;30.612;2022-07-29T04:52:48;6.87;;;1.02;;
58978;SDS011;44763;50.464;30.612;2022-07-29T04:55:16;5.67;;;1.42;;
58978;SDS011;44763;50.464;30.612;2022-07-29T04:57:44;3.45;;;0.95;;
58978;SDS011;44763;50.464;30.612;2022-07-29T05:00:11;3.47;;;1.45;;
58978;SDS011;44763;50.464;30.612;2022-07-29T05:02:38;6.22;;;1.70;;
58978;SDS011;44763;50.464;30.612;2022-07-29T05:05:07;3.30;;;0.90;;
58978;SDS011;44763;50.464;30.612;2022-07-29T05:07:34;5.90;;;1.70;;
58978;SDS011;44763;50.464;30.612;2022-07-29T05:10:03;5.25;;;0.75;;
58978;SDS011;44763;50.464;30.612;2022-07-29T05:12:31;2.92;;;0.40;;
58978;SDS011;44763;50.464;30.612;2022-07-29T05:14:57;1.82;;;0.45;;
58978;SDS011;44763;50.464;30.612;2022-07-29T05:17:24;2.30;;;0.40;;
58978;SDS011;44763;50.464;30.612;2022-07-29T05:19:51;3.70;;;0.42;;
58978;SDS011;44763;50.464;30.612;2022-07-29T05:22:19;1.98;;;1.75;;
58978;SDS011;44763;50.464;30.612;2022-07-29T05:24:46;14.78;;;7.78;;
58978;SDS011;44763;50.464;30.612;2022-07-29T05:27:13;8.55;;;5.55;;
58978;SDS011;44763;50.464;30.612;2022-07-29T05:29:40;5.05;;;1.90;;
58978;SDS011;44763;50.464;30.612;2022-07-29T05:32:07;4.47;;;1.20;;
58978;SDS011;44763;50.464;30.612;2022-07-29T05:34:33;3.05;;;1.10;;
58978;SDS011;44763;50.464;30.612;2022-07-29T05:37:01;2.08;;;0.68;;
58978;SDS011;44763;50.464;30.612;2022-07-29T05:39:29;2.98;;;0.68;;
58978;SDS011;44763;50.464;30.612;2022-07-29T05:41:55;1.52;;;0.30;;
58978;SDS011;44763;50.464;30.612;2022-07-29T05:44:23;2.72;;;0.20;;
58978;SDS011;44763;50.464;30.612;2022-07-29T05:46:51;2.52;;;0.30;;
58978;SDS011;44763;50.464;30.612;2022-07-29T05:49:18;1.35;;;0.37;;
58978;SDS011;44763;50.464;30.612;2022-07-29T05:51:46;0.42;;;0.15;;
58978;SDS011;44763;50.464;30.612;2022-07-29T05:54:15;1.05;;;0.20;;
58978;SDS011;44763;50.464;30.612;2022-07-29T05:56:42;1.98;;;0.60;;
58978;SDS011;44763;50.464;30.612;2022-07-29T05:59:08;1.32;;;0.33;;
58978;SDS011;44763;50.464;30.612;2022-07-29T06:01:35;1.00;;;0.20;;
58978;SDS011;44763;50.464;30.612;2022-07-29T06:04:03;2.47;;;0.20;;
58978;SDS011;44763;50.464;30.612;2022-07-29T06:06:29;1.27;;;0.55;;
58978;SDS011;44763;50.464;30.612;2022-07-29T06:08:59;0.93;;;0.40;;
58978;SDS011;44763;50.464;30.612;2022-07-29T06:11:27;2.58;;;0.35;;
58978;SDS011;44763;50.464;30.612;2022-07-29T06:13:53;1.67;;;0.30;;
58978;SDS011;44763;50.464;30.612;2022-07-29T06:16:21;0.20;;;0.10;;
58978;SDS011;44763;50.464;30.612;2022-07-29T06:18:47;2.15;;;0.20;;
58978;SDS011;44763;50.464;30.612;2022-07-29T06:21:15;3.33;;;0.40;;
58978;SDS011;44763;50.464;30.612;2022-07-29T06:23:41;1.52;;;0.30;;
58978;SDS011;44763;50.464;30.612;2022-07-29T06:26:07;2.95;;;0.50;;
58978;SDS011;44763;50.464;30.612;2022-07-29T06:28:35;0.65;;;0.20;;
58978;SDS011;44763;50.464;30.612;2022-07-29T06:31:01;3.08;;;0.33;;
58978;SDS011;44763;50.464;30.612;2022-07-29T06:33:28;1.52;;;0.30;;
58978;SDS011;44763;50.464;30.612;2022-07-29T06:35:56;0.45;;;0.10;;
58978;SDS011;44763;50.464;30.612;2022-07-29T06:38:22;0.75;;;0.25;;
58978;SDS011;44763;50.464;30.612;2022-07-29T06:40:50;0.72;;;0.13;;
58978;SDS011;44763;50.464;30.612;2022-07-29T06:43:44;0.70;;;0.10;;
58978;SDS011;44763;50.464;30.612;2022-07-29T06:46:07;0.53;;;0.10;;
58978;SDS011;44763;50.464;30.612;2022-07-29T06:48:34;1.77;;;0.30;;
58978;SDS011;44763;50.464;30.612;2022-07-29T06:51:04;2.95;;;0.28;;
58978;SDS011;44763;50.464;30.612;2022-07-29T06:53:33;1.98;;;0.30;;
58978;SDS011;44763;50.464;30.612;2022-07-29T06:55:59;2.17;;;0.13;;
58978;SDS011;44763;50.464;30.612;2022-07-29T06:58:27;1.45;;;0.10;;
58978;SDS011;44763;50.464;30.612;2022-07-29T07:00:56;2.00;;;0.30;;
58978;SDS011;44763;50.464;30.612;2022-07-29T07:03:26;1.60;;;0.30;;
58978;SDS011;44763;50.464;30.612;2022-07-29T07:05:53;4.33;;;0.37;;
58978;SDS011;44763;50.464;30.612;2022-07-29T07:08:22;2.67;;;0.40;;
58978;SDS011;44763;50.464;30.612;2022-07-29T07:10:49;1.27;;;0.20;;
58978;SDS011;44763;50.464;30.612;2022-07-29T07:13:17;1.30;;;0.10;;
58978;SDS011;44763;50.464;30.612;2022-07-29T07:15:45;0.65;;;0.20;;
58978;SDS011;44763;50.464;30.612;2022-07-29T07:18:15;1.15;;;0.30;;
58978;SDS011;44763;50.464;30.612;2022-07-29T07:20:42;3.12;;;0.30;;
58978;SDS011;44763;50.464;30.612;2022-07-29T07:23:10;1.15;;;0.20;;
58978;SDS011;44763;50.464;30.612;2022-07-29T07:25:36;2.90;;;0.50;;
58978;SDS011;44763;50.464;30.612;2022-07-29T07:28:03;0.70;;;0.20;;
58978;SDS011;44763;50.464;30.612;2022-07-29T07:30:30;1.85;;;0.30;;
58978;SDS011;44763;50.464;30.612;2022-07-29T07:32:56;8.38;;;1.05;;
58978;SDS011;44763;50.464;30.612;2022-07-29T07:35:22;1.80;;;0.37;;
58978;SDS011;44763;50.464;30.612;2022-07-29T07:37:50;2.33;;;0.40;;
58978;SDS011;44763;50.464;30.612;2022-07-29T07:40:17;0.68;;;0.33;;
58978;SDS011;44763;50.464;30.612;2022-07-29T07:42:43;1.20;;;0.10;;
58978;SDS011;44763;50.464;30.612;2022-07-29T07:45:09;2.12;;;0.50;;
58978;SDS011;44763;50.464;30.612;2022-07-29T07:47:37;3.65;;;0.40;;
58978;SDS011;44763;50.464;30.612;2022-07-29T07:50:07;1.52;;;0.50;;
58978;SDS011;44763;50.464;30.612;2022-07-29T07:52:45;3.33;;;0.30;;
58978;SDS011;44763;50.464;30.612;2022-07-29T07:55:19;5.95;;;0.30;;
58978;SDS011;44763;50.464;30.612;2022-07-29T07:57:48;1.95;;;0.37;;
58978;SDS011;44763;50.464;30.612;2022-07-29T08:00:14;3.08;;;0.60;;
58978;SDS011;44763;50.464;30.612;2022-07-29T08:02:42;2.45;;;0.20;;
58978;SDS011;44763;50.464;30.612;2022-07-29T08:05:12;1.22;;;0.28;;
58978;SDS011;44763;50.464;30.612;2022-07-29T08:07:41;0.70;;;0.37;;
58978;SDS011;44763;50.464;30.612;2022-07-29T08:10:11;1.57;;;0.40;;
58978;SDS011;44763;50.464;30.612;2022-07-29T08:12:38;2.33;;;0.30;;
58978;SDS011;44763;50.464;30.612;2022-07-29T08:15:07;4.12;;;0.93;;
58978;SDS011;44763;50.464;30.612;2022-07-29T08:17:34;5.97;;;0.47;;
58978;SDS011;44763;50.464;30.612;2022-07-29T08:20:01;1.30;;;0.57;;
58978;SDS011;44763;50.464;30.612;2022-07-29T08:22:30;0.88;;;0.47;;
58978;SDS011;44763;50.464;30.612;2022-07-29T08:24:57;0.72;;;0.45;;
58978;SDS011;44763;50.464;30.612;2022-07-29T08:27:24;1.27;;;0.23;;
58978;SDS011;44763;50.464;30.612;2022-07-29T08:29:51;1.20;;;0.37;;
58978;SDS011;44763;50.464;30.612;2022-07-29T08:32:18;6.62;;;3.55;;
58978;SDS011;44763;50.464;30.612;2022-07-29T08:34:44;3.60;;;0.72;;
58978;SDS011;44763;50.464;30.612;2022-07-29T08:37:12;1.12;;;1.12;;
58978;SDS011;44763;50.464;30.612;2022-07-29T08:39:40;3.65;;;0.75;;
58978;SDS011;44763;50.464;30.612;2022-07-29T08:42:07;3.55;;;0.60;;
58978;SDS011;44763;50.464;30.612;2022-07-29T08:44:35;1.85;;;0.40;;
58978;SDS011;44763;50.464;30.612;2022-07-29T08:47:02;2.10;;;0.85;;
58978;SDS011;44763;50.464;30.612;2022-07-29T08:49:32;2.87;;;1.42;;
58978;SDS011;44763;50.464;30.612;2022-07-29T08:52:02;4.22;;;0.40;;
58978;SDS011;44763;50.464;30.612;2022-07-29T08:54:30;1.07;;;0.40;;
58978;SDS011;44763;50.464;30.612;2022-07-29T08:56:58;1.65;;;0.98;;
58978;SDS011;44763;50.464;30.612;2022-07-29T08:59:27;2.85;;;0.70;;
58978;SDS011;44763;50.464;30.612;2022-07-29T09:01:54;0.98;;;0.40;;
58978;SDS011;44763;50.464;30.612;2022-07-29T09:04:25;1.62;;;0.62;;
58978;SDS011;44763;50.464;30.612;2022-07-29T09:06:57;3.70;;;0.40;;
58978;SDS011;44763;50.464;30.612;2022-07-29T09:09:26;1.80;;;0.40;;
58978;SDS011;44763;50.464;30.612;2022-07-29T09:11:53;3.55;;;0.33;;
58978;SDS011;44763;50.464;30.612;2022-07-29T09:14:21;0.93;;;0.53;;
58978;SDS011;44763;50.464;30.612;2022-07-29T09:16:50;0.93;;;0.57;;
58978;SDS011;44763;50.464;30.612;2022-07-29T09:19:20;3.45;;;0.50;;
58978;SDS011;44763;50.464;30.612;2022-07-29T09:22:03;0.60;;;0.50;;
58978;SDS011;44763;50.464;30.612;2022-07-29T09:27:20;3.40;;;0.37;;
58978;SDS011;44763;50.464;30.612;2022-07-29T09:30:03;0.62;;;0.20;;
58978;SDS011;44763;50.464;30.612;2022-07-29T09:32:32;1.05;;;0.50;;
58978;SDS011;44763;50.464;30.612;2022-07-29T09:35:17;1.87;;;1.22;;
58978;SDS011;44763;50.464;30.612;2022-07-29T09:37:50;2.65;;;0.60;;
58978;SDS011;44763;50.464;30.612;2022-07-29T09:40:18;2.58;;;0.65;;
58978;SDS011;44763;50.464;30.612;2022-07-29T09:42:48;3.70;;;0.98;;
58978;SDS011;44763;50.464;30.612;2022-07-29T09:47:59;0.82;;;0.50;;
58978;SDS011;44763;50.464;30.612;2022-07-29T09:50:45;0.40;;;0.40;;
58978;SDS011;44763;50.464;30.612;2022-07-29T09:53:29;0.88;;;0.53;;
58978;SDS011;44763;50.464;30.612;2022-07-29T09:56:03;1.02;;;0.30;;
58978;SDS011;44763;50.464;30.612;2022-07-29T09:58:33;4.95;;;0.50;;
58978;SDS011;44763;50.464;30.612;2022-07-29T10:01:00;0.82;;;0.45;;
58978;SDS011;44763;50.464;30.612;2022-07-29T10:03:27;1.40;;;0.42;;
58978;SDS011;44763;50.464;30.612;2022-07-29T10:08:40;1.25;;;0.95;;
58978;SDS011;44763;50.464;30.612;2022-07-29T10:11:14;5.45;;;0.95;;
58978;SDS011;44763;50.464;30.612;2022-07-29T10:13:46;5.05;;;0.93;;
58978;SDS011;44763;50.464;30.612;2022-07-29T10:16:15;2.27;;;1.10;;
58978;SDS011;44763;50.464;30.612;2022-07-29T10:18:42;1.27;;;0.60;;
58978;SDS011;44763;50.464;30.612;2022-07-29T10:21:11;0.40;;;0.30;;
58978;SDS011;44763;50.464;30.612;2022-07-29T10:23:39;2.60;;;0.40;;
58978;SDS011;44763;50.464;30.612;2022-07-29T10:26:07;2.45;;;1.40;;
58978;SDS011;44763;50.464;30.612;2022-07-29T10:28:36;1.25;;;0.72;;
58978;SDS011;44763;50.464;30.612;2022-07-29T10:31:07;2.83;;;0.30;;
58978;SDS011;44763;50.464;30.612;2022-07-29T10:36:47;2.20;;;1.65;;
58978;SDS011;44763;50.464;30.612;2022-07-29T10:42:21;2.33;;;0.68;;
58978;SDS011;44763;50.464;30.612;2022-07-29T10:44:50;5.67;;;0.95;;
58978;SDS011;44763;50.464;30.612;2022-07-29T10:47:24;3.42;;;0.42;;
58978;SDS011;44763;50.464;30.612;2022-07-29T10:49:55;2.47;;;0.40;;
58978;SDS011;44763;50.464;30.612;2022-07-29T10:52:51;2.47;;;0.45;;
58978;SDS011;44763;50.464;30.612;2022-07-29T10:55:30;1.37;;;0.20;;
58978;SDS011;44763;50.464;30.612;2022-07-29T10:58:10;3.27;;;0.60;;
58978;SDS011;44763;50.464;30.612;2022-07-29T11:00:44;0.70;;;0.42;;
58978;SDS011;44763;50.464;30.612;2022-07-29T11:06:16;1.75;;;0.90;;
58978;SDS011;44763;50.464;30.612;2022-07-29T11:08:43;2.87;;;1.47;;
58978;SDS011;44763;50.464;30.612;2022-07-29T11:13:52;4.37;;;0.82;;
58978;SDS011;44763;50.464;30.612;2022-07-29T11:16:21;3.55;;;1.50;;
58978;SDS011;44763;50.464;30.612;2022-07-29T11:21:43;4.50;;;1.22;;
58978;SDS011;44763;50.464;30.612;2022-07-29T11:24:17;1.67;;;1.20;;
58978;SDS011;44763;50.464;30.612;2022-07-29T11:29:57;3.42;;;0.85;;
58978;SDS011;44763;50.464;30.612;2022-07-29T11:32:40;6.28;;;1.10;;
58978;SDS011;44763;50.464;30.612;2022-07-29T11:35:17;0.80;;;0.40;;
58978;SDS011;44763;50.464;30.612;2022-07-29T11:38:22;1.27;;;0.68;;
58978;SDS011;44763;50.464;30.612;2022-07-29T11:49:19;4.33;;;3.50;;
58978;SDS011;44763;50.464;30.612;2022-07-29T11:51:56;2.83;;;0.50;;
58978;SDS011;44763;50.464;30.612;2022-07-29T11:54:25;3.45;;;1.20;;
58978;SDS011;44763;50.464;30.612;2022-07-29T11:56:58;2.15;;;1.02;;
58978;SDS011;44763;50.464;30.612;2022-07-29T11:59:26;4.85;;;1.65;;
58978;SDS011;44763;50.464;30.612;2022-07-29T12:01:54;5.42;;;0.53;;
58978;SDS011;44763;50.464;30.612;2022-07-29T12:04:22;4.00;;;0.72;;
58978;SDS011;44763;50.464;30.612;2022-07-29T12:06:54;1.87;;;0.78;;
58978;SDS011;44763;50.464;30.612;2022-07-29T12:09:24;3.47;;;0.93;;
58978;SDS011;44763;50.464;30.612;2022-07-29T12:11:56;1.25;;;0.57;;
58978;SDS011;44763;50.464;30.612;2022-07-29T12:14:31;0.50;;;0.50;;
58978;SDS011;44763;50.464;30.612;2022-07-29T12:16:59;1.15;;;0.42;;
58978;SDS011;44763;50.464;30.612;2022-07-29T12:19:26;5.70;;;1.30;;
58978;SDS011;44763;50.464;30.612;2022-07-29T12:21:54;8.90;;;0.98;;
58978;SDS011;44763;50.464;30.612;2022-07-29T12:24:24;4.10;;;0.65;;
58978;SDS011;44763;50.464;30.612;2022-07-29T12:26:56;5.50;;;1.10;;
58978;SDS011;44763;50.464;30.612;2022-07-29T12:29:24;2.12;;;1.37;;
58978;SDS011;44763;50.464;30.612;2022-07-29T12:31:57;1.75;;;0.68;;
58978;SDS011;44763;50.464;30.612;2022-07-29T12:34:26;3.45;;;0.82;;
58978;SDS011;44763;50.464;30.612;2022-07-29T12:36:54;5.22;;;0.50;;
58978;SDS011;44763;50.464;30.612;2022-07-29T12:39:21;2.55;;;1.20;;
58978;SDS011;44763;50.464;30.612;2022-07-29T12:41:49;3.33;;;0.65;;
58978;SDS011;44763;50.464;30.612;2022-07-29T12:44:16;5.97;;;0.93;;
58978;SDS011;44763;50.464;30.612;2022-07-29T12:46:42;3.25;;;0.62;;
58978;SDS011;44763;50.464;30.612;2022-07-29T12:49:08;3.52;;;0.75;;
58978;SDS011;44763;50.464;30.612;2022-07-29T12:51:35;2.80;;;0.75;;
58978;SDS011;44763;50.464;30.612;2022-07-29T12:56:39;4.55;;;0.68;;
58978;SDS011;44763;50.464;30.612;2022-07-29T12:59:26;4.50;;;1.17;;
58978;SDS011;44763;50.464;30.612;2022-07-29T13:01:50;2.95;;;1.05;;
58978;SDS011;44763;50.464;30.612;2022-07-29T13:04:31;0.70;;;0.70;;
58978;SDS011;44763;50.464;30.612;2022-07-29T13:07:01;4.78;;;0.93;;
58978;SDS011;44763;50.464;30.612;2022-07-29T13:09:38;4.17;;;0.82;;
58978;SDS011;44763;50.464;30.612;2022-07-29T13:12:10;2.22;;;0.85;;
58978;SDS011;44763;50.464;30.612;2022-07-29T13:14:39;2.22;;;0.75;;
58978;SDS011;44763;50.464;30.612;2022-07-29T13:17:15;2.67;;;0.65;;
58978;SDS011;44763;50.464;30.612;2022-07-29T13:20:06;1.35;;;0.88;;
58978;SDS011;44763;50.464;30.612;2022-07-29T13:22:36;9.48;;;2.10;;
58978;SDS011;44763;50.464;30.612;2022-07-29T13:25:02;4.12;;;1.37;;
58978;SDS011;44763;50.464;30.612;2022-07-29T13:27:36;3.90;;;1.77;;
58978;SDS011;44763;50.464;30.612;2022-07-29T13:30:06;2.42;;;0.98;;
58978;SDS011;44763;50.464;30.612;2022-07-29T13:32:34;4.58;;;1.02;;
58978;SDS011;44763;50.464;30.612;2022-07-29T13:35:03;4.35;;;1.00;;
58978;SDS011;44763;50.464;30.612;2022-07-29T13:37:35;3.55;;;0.55;;
58978;SDS011;44763;50.464;30.612;2022-07-29T13:40:04;4.33;;;0.93;;
58978;SDS011;44763;50.464;30.612;2022-07-29T13:42:34;3.05;;;0.98;;
58978;SDS011;44763;50.464;30.612;2022-07-29T13:45:02;1.25;;;0.50;;
58978;SDS011;44763;50.464;30.612;2022-07-29T13:50:23;2.52;;;0.78;;
58978;SDS011;44763;50.464;30.612;2022-07-29T13:52:49;2.62;;;0.60;;
58978;SDS011;44763;50.464;30.612;2022-07-29T13:55:16;3.65;;;0.78;;
58978;SDS011;44763;50.464;30.612;2022-07-29T13:57:43;1.95;;;0.62;;
58978;SDS011;44763;50.464;30.612;2022-07-29T14:00:11;3.47;;;0.37;;
58978;SDS011;44763;50.464;30.612;2022-07-29T14:02:39;5.47;;;0.60;;
58978;SDS011;44763;50.464;30.612;2022-07-29T14:05:07;1.67;;;0.70;;
58978;SDS011;44763;50.464;30.612;2022-07-29T14:07:37;2.60;;;2.17;;
58978;SDS011;44763;50.464;30.612;2022-07-29T14:10:05;1.62;;;1.17;;
58978;SDS011;44763;50.464;30.612;2022-07-29T14:12:34;5.35;;;0.70;;
58978;SDS011;44763;50.464;30.612;2022-07-29T14:15:00;1.47;;;0.60;;
58978;SDS011;44763;50.464;30.612;2022-07-29T14:17:27;0.53;;;0.33;;
58978;SDS011;44763;50.464;30.612;2022-07-29T14:19:53;3.35;;;1.05;;
58978;SDS011;44763;50.464;30.612;2022-07-29T14:22:20;4.67;;;0.65;;
58978;SDS011;44763;50.464;30.612;2022-07-29T14:24:48;3.08;;;0.70;;
58978;SDS011;44763;50.464;30.612;2022-07-29T14:27:15;1.75;;;0.68;;
58978;SDS011;44763;50.464;30.612;2022-07-29T14:29:41;1.25;;;0.65;;
58978;SDS011;44763;50.464;30.612;2022-07-29T14:32:09;2.60;;;0.50;;
58978;SDS011;44763;50.464;30.612;2022-07-29T14:34:36;3.22;;;0.95;;
58978;SDS011;44763;50.464;30.612;2022-07-29T14:37:04;0.93;;;0.70;;
58978;SDS011;44763;50.464;30.612;2022-07-29T14:39:31;1.55;;;0.85;;
58978;SDS011;44763;50.464;30.612;2022-07-29T14:41:59;4.40;;;0.93;;
58978;SDS011;44763;50.464;30.612;2022-07-29T14:44:25;1.00;;;0.72;;
58978;SDS011;44763;50.464;30.612;2022-07-29T14:46:55;1.07;;;0.65;;
58978;SDS011;44763;50.464;30.612;2022-07-29T14:49:21;4.33;;;0.50;;
58978;SDS011;44763;50.464;30.612;2022-07-29T14:51:47;1.65;;;0.90;;
58978;SDS011;44763;50.464;30.612;2022-07-29T14:54:14;2.95;;;0.72;;
58978;SDS011;44763;50.464;30.612;2022-07-29T14:56:40;4.22;;;0.75;;
58978;SDS011;44763;50.464;30.612;2022-07-29T14:59:07;3.70;;;0.78;;
58978;SDS011;44763;50.464;30.612;2022-07-29T15:01:33;2.42;;;1.17;;
58978;SDS011;44763;50.464;30.612;2022-07-29T15:04:01;1.72;;;0.90;;
58978;SDS011;44763;50.464;30.612;2022-07-29T15:06:28;1.12;;;0.80;;
58978;SDS011;44763;50.464;30.612;2022-07-29T15:08:55;2.50;;;0.80;;
58978;SDS011;44763;50.464;30.612;2022-07-29T15:11:22;4.12;;;0.55;;
58978;SDS011;44763;50.464;30.612;2022-07-29T15:13:49;1.92;;;0.78;;
58978;SDS011;44763;50.464;30.612;2022-07-29T15:16:15;1.50;;;0.80;;
58978;SDS011;44763;50.464;30.612;2022-07-29T15:18:44;1.32;;;0.85;;
58978;SDS011;44763;50.464;30.612;2022-07-29T15:21:12;2.33;;;0.88;;
58978;SDS011;44763;50.464;30.612;2022-07-29T15:23:39;2.02;;;0.82;;
58978;SDS011;44763;50.464;30.612;2022-07-29T15:31:40;3.98;;;0.47;;
58978;SDS011;44763;50.464;30.612;2022-07-29T15:34:06;5.05;;;0.70;;
58978;SDS011;44763;50.464;30.612;2022-07-29T15:36:34;1.02;;;0.80;;
58978;SDS011;44763;50.464;30.612;2022-07-29T15:39:00;1.35;;;0.60;;
58978;SDS011;44763;50.464;30.612;2022-07-29T15:41:29;2.70;;;0.75;;
58978;SDS011;44763;50.464;30.612;2022-07-29T15:43:56;2.65;;;1.00;;
58978;SDS011;44763;50.464;30.612;2022-07-29T15:46:23;2.45;;;0.70;;
58978;SDS011;44763;50.464;30.612;2022-07-29T15:49:07;1.82;;;0.90;;
58978;SDS011;44763;50.464;30.612;2022-07-29T15:51:35;0.82;;;0.50;;
58978;SDS011;44763;50.464;30.612;2022-07-29T15:54:03;5.10;;;0.85;;
58978;SDS011;44763;50.464;30.612;2022-07-29T15:56:30;3.30;;;0.60;;
58978;SDS011;44763;50.464;30.612;2022-07-29T15:58:57;1.50;;;0.50;;